Tiempo atmosférico en la estación meteorológica de Teror, Las Palmas (683 m.)



Fecha
DESCASC
Temp. máxima en grados centígrados (hora)
DESCASC
Temp. mínima en grados centígrados (hora)
DESCASC
Temp. media en grados centígrados
DESCASC
Racha de viento máxima en m/sg (hora)
DESCASC
Velocidad máxima media en intervalos de 10 minutos(hora)
DESCASC
Precipitaciones diarias en mm
DESCASC
Precipitaciones de 00:00 a 06:00 en mm
DESCASC
Precipitaciones de 06:00 a 12:00 en mm
DESCASC
Precipitaciones de 12:00 a 18:00 en mm
DESCASC
Precipitaciones de 18:00 a 24:00 en mm
DESCASC
15-07-2018 21.3 (13:10) 11.6 (00:50) 16.4 6.39 (14:20) 3.61 (13:30) 0 0 0 0 0
14-07-2018 22.1 (13:40) 11.5 (00:00) 16.8 6.67 (14:50) 3.33 (14:10) 0 0 0 0 0
13-07-2018 22.1 (15:30) 11.5 (23:20) 16.8 6.39 (16:50) 3.33 (14:50) 0 0 0 0 0
12-07-2018 21.5 (13:50) 13.7 (00:00) 17.6 6.67 (13:50) 3.89 (14:00) 0 0 0 0 0
11-07-2018 23.7 (15:00) 14.5 (00:00) 19.1 8.06 (19:10) 4.72 (19:10) 0 0 0 0 0
10-07-2018 33.1 (13:10) 16.4 (00:00) 24.7 5.83 (23:59) 3.06 (14:10) 0 0 0 0 0
09-07-2018 30.5 (15:30) 15.1 (00:00) 22.8 4.72 (17:10) 2.22 (14:00) 0 0 0 0 0
08-07-2018 25.2 (15:20) 11 (04:20) 18.1 4.17 (13:00) 2.22 (14:20) 0 0 0 0 0
07-07-2018 23.6 (12:30) 12.4 (00:00) 18 4.72 (15:20) 3.06 (20:00) 0 0 0 0 0
06-07-2018 21.4 (15:30) 13.9 (00:00) 17.6 5.83 (16:00) 3.61 (16:00) 0 0 0 0 0
05-07-2018 22.4 (14:50) 12.9 (00:00) 17.6 5.28 (14:30) 2.5 (15:40) 0 0 0 0 0
04-07-2018 21.9 (13:40) 12.4 (22:20) 17.1 5.83 (14:50) 3.06 (14:00) 0 0 0 0 0
03-07-2018 21.1 (14:50) 13 (21:30) 17.1 6.11 (14:30) 3.89 (13:00) 0 0 0 0 0
02-07-2018 21.5 (14:10) 11.2 (01:50) 16.3 5.56 (14:20) 3.06 (14:30) 0 0 0 0 0
01-07-2018 22.2 (14:10) 11.7 (00:00) 17 6.94 (16:40) 3.61 (14:20) 0.2 0.2 0 0 0
30-06-2018 21.7 (14:30) 14.2 (08:00) 18 8.06 (00:10) 5 (00:10) 2.4 1 1.4 0 0
29-06-2018 24.1 (13:00) 15.2 (00:00) 19.7 8.89 (23:59) 4.44 (23:59) 0.8 0 0 0 0.8
28-06-2018 22.7 (14:30) 11.3 (00:00) 17 9.17 (18:40) 5.56 (18:50) 0 0 0 0 0
27-06-2018 23 (13:30) 10.3 (00:00) 16.7 5 (13:40) 3.06 (14:10) 0 0 0 0 0
26-06-2018 22.3 (15:00) 10.4 (00:00) 16.3 6.11 (14:30) 3.33 (14:10) 0 0 0 0 0
25-06-2018 23.3 (14:40) 9.8 (00:00) 16.5 6.67 (14:10) 3.33 (13:10) 0 0 0 0 0
24-06-2018 22.2 (14:40) 10.4 (00:00) 16.3 8.89 (03:30) 5.28 (04:10) 0 0 0 0 0
23-06-2018 21.5 (15:40) 11.4 (00:00) 16.4 8.89 (18:20) 6.11 (18:30) 0 0 0 0 0
22-06-2018 17.6 (14:20) 11.9 (23:40) 14.8 8.33 (02:00) 4.17 (01:30) 0 0 0 0 0
21-06-2018 20.5 (14:50) 10.6 (00:00) 15.6 7.5 (22:50) 4.17 (13:40) 0 0 0 0 0
20-06-2018 21.1 (16:00) 12.9 (00:00) 17 8.06 (15:20) 4.44 (11:50) 0 0 0 0 0
19-06-2018 20.8 (15:00) 13.2 (00:00) 17 11.67 (17:30) 6.11 (12:20) 0 0 0 0 0
18-06-2018 18 (14:10) 12.8 (00:00) 15.4 9.17 (23:20) 5 (18:20) 2.2 2.2 0 0 0
17-06-2018 18.9 (14:40) 12.1 (00:00) 15.5 6.67 (17:40) 3.61 (18:10) 3.6 0 0 0 3.6

Gráficas

Temp. máximas Temp. mínimas Temp. medias Precipitaciones Rachas de viento máximas Velocidades máximas media en intervalos de 10 minutos

Datos horarios

Fecha y hora oficial Temperatura (ºC) Velocidad del viento (km/h) Dirección del viento Racha (km/h) Dirección de racha Precipitación (mm) Presión (hPa) Tendencia (hPa) Humedad (%)
2018-07-16 23:00:00 15.1 6 Noroeste 23 Noroeste 0 -- -- 96
2018-07-16 22:00:00 15.3 8 Noroeste 20 Norte 0 -- -- 97
2018-07-16 21:00:00 15.2 6 Noroeste 16 Norte 0 -- -- 95
2018-07-16 20:00:00 16 6 Norte 21 Norte 0 -- -- 91
2018-07-16 19:00:00 16.4 10 Norte 20 Nordeste 0 -- -- 90
2018-07-16 18:00:00 17.8 8 Norte 23 Nordeste 0 -- -- 86
2018-07-16 17:00:00 19.8 11 Norte 23 Norte 0 -- -- 73
2018-07-16 16:00:00 18.8 11 Norte 23 Norte 0 -- -- 80
2018-07-16 15:00:00 20.4 11 Norte 26 Nordeste 0 -- -- 76
2018-07-16 14:00:00 19.8 10 Norte 21 Norte 0 -- -- 77
2018-07-16 13:00:00 18 9 Nordeste 19 Norte 0 -- -- 86
2018-07-16 12:00:00 17.6 10 Norte 31 Norte 0 -- -- 87
2018-07-16 11:00:00 16.7 12 Norte 23 Nordeste 0 -- -- 93
2018-07-16 10:00:00 15.2 10 Norte 23 Norte 0 -- -- 100
2018-07-16 09:00:00 14.9 13 Norte 23 Norte 0 -- -- 100
2018-07-16 08:00:00 14.8 10 Norte 19 Nordeste 0 -- -- 100
2018-07-16 07:00:00 14.7 10 Norte 25 Noroeste 0 -- -- 100
2018-07-16 06:00:00 14.7 5 Noroeste 17 Noroeste 0 -- -- 99
2018-07-16 05:00:00 14.7 8 Noroeste 17 Norte 0 -- -- 99
2018-07-16 04:00:00 14.7 4 Noroeste 17 Noroeste 0 -- -- 98
2018-07-16 03:00:00 14.4 4 Noroeste 16 Noroeste 0 -- -- 98
2018-07-16 02:00:00 13.2 6 Oeste 12 Noroeste 0 -- -- 99
2018-07-16 01:00:00 14 4 Noroeste 11 Nordeste 0 -- -- 98
2018-07-16 00:00:00 15 3 Norte 15 Sudeste 0 -- -- 97
2018-07-15 23:00:00 15.2 6 Nordeste 14 Sudeste 0 -- -- 96
2018-07-15 22:00:00 14.9 5 Nordeste 15 Nordeste 0 -- -- 96
2018-07-15 21:00:00 15.6 2 Norte 13 Norte 0 -- -- 91
2018-07-15 20:00:00 16.6 6 Norte 17 Norte 0 -- -- 85
2018-07-15 19:00:00 19.3 8 Norte 17 Noroeste 0 -- -- 77
2018-07-15 18:00:00 19.6 5 Norte 20 Nordeste 0 -- -- 75
2018-07-15 17:00:00 20.4 10 Nordeste 22 Nordeste 0 -- -- 71
2018-07-15 16:00:00 21 9 Nordeste 22 Nordeste 0 -- -- 66
2018-07-15 15:00:00 20.3 6 Nordeste 23 Nordeste 0 -- -- 71
2018-07-15 14:00:00 19.7 8 Nordeste 22 Nordeste 0 -- -- 73
2018-07-15 13:00:00 20.3 10 Norte 22 Nordeste 0 -- -- 75
2018-07-15 12:00:00 18.2 8 Norte 18 Norte 0 -- -- 86
2018-07-15 11:00:00 17.4 10 Norte 22 Noroeste 0 -- -- 86
2018-07-15 10:00:00 16.3 6 Noroeste 18 Noroeste 0 -- -- 93
2018-07-15 09:00:00 16.1 7 Norte 18 Noroeste 0 -- -- 93
2018-07-15 08:00:00 14.8 8 Noroeste 18 Noroeste 0 -- -- 98
2018-07-15 07:00:00 14.3 5 Noroeste 21 Noroeste 0 -- -- 99
2018-07-15 06:00:00 12 6 Oeste 10 Noroeste 0 -- -- 100
2018-07-15 05:00:00 11.9 5 Oeste 12 Oeste 0 -- -- 96
2018-07-15 04:00:00 12.1 7 Noroeste 9 Sudoeste 0 -- -- 93
2018-07-15 03:00:00 12.1 3 Sur 11 Sudoeste 0 -- -- 96
2018-07-15 02:00:00 12.2 4 Oeste 8 Sudoeste 0 -- -- 98
2018-07-15 01:00:00 12.3 5 Sudoeste 9 Oeste 0 -- -- 100
2018-07-15 00:00:00 12.2 4 Sudoeste 10 Noroeste 0 -- -- 99
2018-07-14 23:00:00 12.4 5 Oeste 9 Oeste 0 -- -- 98
2018-07-14 22:00:00 12.7 6 Oeste 9 Oeste 0 -- -- 97
2018-07-14 21:00:00 14.2 3 Noroeste 9 Norte 0 -- -- 92
2018-07-14 20:00:00 16.7 4 Norte 13 Norte 0 -- -- 83
2018-07-14 19:00:00 19.9 6 Norte 17 Nordeste 0 -- -- 68
2018-07-14 18:00:00 20.9 8 Norte 18 Norte 0 -- -- 67
2018-07-14 17:00:00 21 10 Norte 21 Nordeste 0 -- -- 73
2018-07-14 16:00:00 21.3 10 Nordeste 22 Nordeste 0 -- -- 70
2018-07-14 15:00:00 21.3 3 Nordeste 24 Norte 0 -- -- 71
2018-07-14 14:00:00 21.3 9 Norte 21 Nordeste 0 -- -- 64
2018-07-14 13:00:00 21.2 9 Nordeste 22 Nordeste 0 -- -- 64
2018-07-14 12:00:00 20.8 9 Norte 20 Nordeste 0 -- -- 60
2018-07-14 11:00:00 20.7 7 Nordeste 16 Nordeste 0 -- -- 63
2018-07-14 10:00:00 20.5 8 Nordeste 14 Este 0 -- -- 64
2018-07-14 09:00:00 17.2 4 Noroeste 9 Nordeste 0 -- -- 86
2018-07-14 08:00:00 13.8 0 Calma 12 Norte 0 -- -- 100
2018-07-14 07:00:00 14.7 8 Norte 13 Norte 0 -- -- 100
2018-07-14 06:00:00 14.7 5 Norte 14 Oeste 0 -- -- 98
2018-07-14 05:00:00 14.3 7 Noroeste 16 Norte 0 -- -- 98
2018-07-14 04:00:00 14 6 Oeste 11 Noroeste 0 -- -- 99
2018-07-14 03:00:00 13.7 5 Oeste 10 Noroeste 0 -- -- 99
2018-07-14 02:00:00 12.8 4 Oeste 6 Oeste 0 -- -- 100
2018-07-14 01:00:00 12.3 3 Oeste 9 Oeste 0 -- -- 99
2018-07-14 00:00:00 11.5 5 Oeste 9 Oeste 0 -- -- 97
2018-07-13 23:00:00 11.7 6 Oeste 9 Oeste 0 -- -- 96
2018-07-13 22:00:00 12.4 6 Oeste 9 Oeste 0 -- -- 95
2018-07-13 21:00:00 14.3 6 Oeste 8 Nordeste 0 -- -- 91
2018-07-13 20:00:00 17 3 Norte 14 Nordeste 0 -- -- 81
2018-07-13 19:00:00 19.7 8 Nordeste 20 Nordeste 0 -- -- 76
2018-07-13 18:00:00 18.3 8 Norte 20 Norte 0 -- -- 81
2018-07-13 17:00:00 20.9 9 Nordeste 23 Este 0 -- -- 71
2018-07-13 16:00:00 21.3 7 Norte 21 Nordeste 0 -- -- 67
2018-07-13 15:00:00 20.7 11 Nordeste 21 Nordeste 0 -- -- 72
2018-07-13 14:00:00 19.5 10 Nordeste 19 Nordeste 0 -- -- 74
2018-07-13 13:00:00 19 8 Nordeste 18 Nordeste 0 -- -- 78
2018-07-13 12:00:00 18.2 10 Nordeste 20 Nordeste 0 -- -- 83
2018-07-13 11:00:00 17.6 10 Norte 18 Nordeste 0 -- -- 84
2018-07-13 10:00:00 15.5 7 Nordeste 18 Este 0 -- -- 96
2018-07-13 09:00:00 16.6 3 Nordeste 12 Norte 0 -- -- 89
2018-07-13 08:00:00 14.8 7 Norte 20 Norte 0 -- -- 99
2018-07-13 07:00:00 15 6 Norte 18 Oeste 0 -- -- 98
2018-07-13 06:00:00 14.7 3 Noroeste 10 Noroeste 0 -- -- 97
2018-07-13 05:00:00 14.5 4 Norte 12 Norte 0 -- -- 98
2018-07-13 04:00:00 14.9 5 Norte 11 Nordeste 0 -- -- 97
2018-07-13 03:00:00 14.8 5 Norte 14 Nordeste 0 -- -- 99
2018-07-13 02:00:00 15.4 4 Nordeste 11 Norte 0 -- -- 96
2018-07-13 01:00:00 14.8 3 Sudoeste 14 Nordeste 0 -- -- 93
2018-07-13 00:00:00 14.4 5 Norte 13 Noroeste 0 -- -- 94
2018-07-12 23:00:00 14.6 5 Noroeste 18 Noroeste 0 -- -- 95
2018-07-12 22:00:00 15.4 8 Noroeste 18 Norte 0 -- -- 94
2018-07-12 21:00:00 15.7 7 Noroeste 17 Norte 0 -- -- 91
2018-07-12 20:00:00 16.4 5 Norte 15 Norte 0 -- -- 87
2018-07-12 19:00:00 17.9 8 Norte 17 Nordeste 0 -- -- 79
2018-07-12 18:00:00 18.2 7 Norte 19 Nordeste 0 -- -- 81
2018-07-12 17:00:00 19.5 7 Norte 18 Norte 0 -- -- 78
2018-07-12 16:00:00 19.5 6 Norte 20 Nordeste 0 -- -- 77
2018-07-12 15:00:00 19.6 8 Nordeste 23 Norte 0 -- -- 77
2018-07-12 14:00:00 21.2 14 Norte 24 Norte 0 -- -- 68
2018-07-12 13:00:00 19.2 13 Norte 21 Norte 0 -- -- 79
2018-07-12 12:00:00 19.3 11 Norte 19 Norte 0 -- -- 77
2018-07-12 11:00:00 18.2 8 Nordeste 21 Nordeste 0 -- -- 83
2018-07-12 10:00:00 16.6 7 Norte 16 Norte 0 -- -- 88
2018-07-12 09:00:00 15.8 7 Noroeste 17 Noroeste 0 -- -- 93
2018-07-12 08:00:00 15.1 9 Noroeste 20 Norte 0 -- -- 98
2018-07-12 07:00:00 15.4 9 Noroeste 23 Norte 0 -- -- 99
2018-07-12 06:00:00 15.3 7 Noroeste 18 Noroeste 0 -- -- 99
2018-07-12 05:00:00 15.4 8 Noroeste 21 Noroeste 0 -- -- 98
2018-07-12 04:00:00 15.4 10 Noroeste 18 Oeste 0 -- -- 98
2018-07-12 03:00:00 15.2 6 Noroeste 20 Noroeste 0 -- -- 97
2018-07-12 02:00:00 14.9 10 Noroeste 23 Noroeste 0 -- -- 98
2018-07-12 01:00:00 15 7 Noroeste 18 Norte 0 -- -- 97
2018-07-12 00:00:00 14.8 7 Noroeste 18 Noroeste 0 -- -- 94
2018-07-11 23:00:00 14.5 3 Nordeste 12 Norte 0 -- -- 94
2018-07-11 22:00:00 15.5 4 Sudeste 18 Norte 0 -- -- 88
2018-07-11 21:00:00 16.3 7 Norte 18 Norte 0 -- -- 92
2018-07-11 20:00:00 18.6 5 Sudeste 29 Noroeste 0 -- -- 84
2018-07-11 19:00:00 19.4 15 Noroeste 27 Noroeste 0 -- -- 85
2018-07-11 18:00:00 21.3 12 Norte 23 Norte 0 -- -- 80
2018-07-11 17:00:00 21.7 11 Norte 21 Nordeste 0 -- -- 78
2018-07-11 16:00:00 22.6 12 Nordeste 21 Nordeste 0 -- -- 75
2018-07-11 15:00:00 23.7 12 Nordeste 21 Nordeste 0 -- -- 72
2018-07-11 14:00:00 22.8 11 Nordeste 18 Norte 0 -- -- 75
2018-07-11 13:00:00 21.8 9 Nordeste 17 Norte 0 -- -- 77
2018-07-11 12:00:00 22.7 8 Nordeste 15 Este 0 -- -- 74
2018-07-11 11:00:00 22.6 6 Nordeste 12 Nordeste 0 -- -- 74
2018-07-11 10:00:00 21.5 4 Nordeste 8 Nordeste 0 -- -- 80
2018-07-11 09:00:00 20.6 2 Este 6 Nordeste 0 -- -- 80
2018-07-11 08:00:00 16.6 3 Noroeste 7 Oeste 0 -- -- 52
2018-07-11 07:00:00 16.9 2 Sur 12 Oeste 0 -- -- 51
2018-07-11 06:00:00 17.8 4 Oeste 13 Noroeste 0 -- -- 45
2018-07-11 05:00:00 19.8 8 Noroeste 15 Noroeste 0 -- -- 35
2018-07-11 04:00:00 22 6 Noroeste 20 Noroeste 0 -- -- 31
2018-07-11 03:00:00 22.1 9 Noroeste 19 Noroeste 0 -- -- 30
2018-07-11 02:00:00 22.7 10 Noroeste 22 Noroeste 0 -- -- 29
2018-07-11 01:00:00 22.7 12 Noroeste 21 Noroeste 0 -- -- 30
2018-07-11 00:00:00 20.7 10 Noroeste 21 Noroeste 0 -- -- 34
2018-07-10 23:00:00 16.9 4 Oeste 6 Oeste 0 -- -- 45
2018-07-10 22:00:00 18.4 0 Calma 8 Oeste 0 -- -- 43
2018-07-10 21:00:00 18.6 2 Noroeste 9 Oeste 0 -- -- 85
2018-07-10 20:00:00 23.9 0 Calma 5 Nordeste 0 -- -- 53
2018-07-10 19:00:00 29.7 0 Calma 8 Nordeste 0 -- -- 44
2018-07-10 18:00:00 30.6 4 Este 12 Este 0 -- -- 26
2018-07-10 17:00:00 30.1 7 Nordeste 15 Nordeste 0 -- -- 31
2018-07-10 16:00:00 30 9 Nordeste 15 Este 0 -- -- 28
2018-07-10 15:00:00 30.4 10 Este 17 Este 0 -- -- 29
2018-07-10 14:00:00 31.1 9 Nordeste 15 Nordeste 0 -- -- 26
2018-07-10 13:00:00 32 8 Nordeste 14 Nordeste 0 -- -- 28
2018-07-10 12:00:00 32.4 9 Este 15 Este 0 -- -- 28
2018-07-10 11:00:00 32 9 Este 15 Este 0 -- -- 20
2018-07-10 10:00:00 31.1 3 Este 10 Norte 0 -- -- 21
2018-07-10 09:00:00 26.2 3 Sur 11 Oeste 0 -- -- 46
2018-07-10 08:00:00 24.2 4 Oeste 12 Oeste 0 -- -- 34
2018-07-10 07:00:00 20.9 3 Noroeste 9 Oeste 0 -- -- 35
2018-07-10 06:00:00 17.9 4 Oeste 11 Oeste 0 -- -- 46
2018-07-10 05:00:00 19.6 6 Sudoeste 10 Sudoeste 0 -- -- 39
2018-07-10 04:00:00 17.2 3 Oeste 9 Oeste 0 -- -- 55
2018-07-10 03:00:00 18.3 5 Oeste 9 Oeste 0 -- -- 52
2018-07-10 02:00:00 18.3 4 Oeste 9 Noroeste 0 -- -- 50
2018-07-10 01:00:00 18.7 2 Oeste 10 Sudoeste 0 -- -- 46
2018-07-10 00:00:00 19.2 5 Sudoeste 9 Sudoeste 0 -- -- 42
2018-07-09 23:00:00 18.8 3 Oeste 12 Sur 0 -- -- 45
2018-07-09 22:00:00 18.3 6 Oeste 11 Oeste 0 -- -- 50
2018-07-09 21:00:00 19.6 6 Oeste 9 Oeste 0 -- -- 38
2018-07-09 20:00:00 22.9 4 Sudoeste 6 Sudeste 0 -- -- 42
2018-07-09 19:00:00 27.1 4 Noroeste 14 Norte 0 -- -- 48
2018-07-09 18:00:00 28.4 4 Noroeste 17 Nordeste 0 -- -- 57
2018-07-09 17:00:00 27.3 6 Norte 12 Nordeste 0 -- -- 45
2018-07-09 16:00:00 30 5 Este 10 Nordeste 0 -- -- 47
2018-07-09 15:00:00 29.3 5 Nordeste 11 Nordeste 0 -- -- 46
2018-07-09 14:00:00 29.7 8 Nordeste 13 Nordeste 0 -- -- 48
2018-07-09 13:00:00 29.2 7 Nordeste 12 Nordeste 0 -- -- 43
2018-07-09 12:00:00 29 7 Este 11 Nordeste 0 -- -- 41
2018-07-09 11:00:00 28.7 6 Este 13 Este 0 -- -- 30
2018-07-09 10:00:00 28.6 4 Sudeste 10 Sudeste 0 -- -- 31
2018-07-09 09:00:00 24.3 3 Sudoeste 10 Sudoeste 0 -- -- 47
2018-07-09 08:00:00 19.3 5 Sudoeste 10 Sudoeste 0 -- -- 51
2018-07-09 07:00:00 17.5 7 Sudoeste 10 Sur 0 -- -- 55
2018-07-09 06:00:00 16.9 6 Sudoeste 9 Sudoeste 0 -- -- 52
2018-07-09 05:00:00 15.7 5 Sudoeste 8 Sudoeste 0 -- -- 57
2018-07-09 04:00:00 15.5 4 Sur 7 Sur 0 -- -- 55
2018-07-09 03:00:00 16.1 4 Oeste 8 Oeste 0 -- -- 55
2018-07-09 02:00:00 16 4 Sudoeste 7 Sudoeste 0 -- -- 52
2018-07-09 01:00:00 15.7 4 Sudoeste 7 Oeste 0 -- -- 61
2018-07-09 00:00:00 16.3 0 Calma 10 Oeste 0 -- -- 56
2018-07-08 23:00:00 15.8 7 Oeste 12 Oeste 0 -- -- 64
2018-07-08 22:00:00 15.3 8 Oeste 11 Oeste 0 -- -- 72
2018-07-08 21:00:00 16.4 0 Calma 5 Nordeste 0 -- -- 94
2018-07-08 20:00:00 18.6 4 Nordeste 10 Nordeste 0 -- -- 89
2018-07-08 19:00:00 20.6 4 Nordeste 10 Nordeste 0 -- -- 81
2018-07-08 18:00:00 21.7 7 Nordeste 14 Nordeste 0 -- -- 79
2018-07-08 17:00:00 24.1 7 Nordeste 14 Nordeste 0 -- -- 70
2018-07-08 16:00:00 25.2 6 Nordeste 12 Nordeste 0 -- -- 66
2018-07-08 15:00:00 24.4 3 Nordeste 15 Nordeste 0 -- -- 65
2018-07-08 14:00:00 24.3 6 Nordeste 15 Este 0 -- -- 65
2018-07-08 13:00:00 23.9 8 Nordeste 15 Nordeste 0 -- -- 67
2018-07-08 12:00:00 22.8 6 Nordeste 12 Nordeste 0 -- -- 72
2018-07-08 11:00:00 23.4 6 Nordeste 13 Este 0 -- -- 72
2018-07-08 10:00:00 21 5 Este 11 Este 0 -- -- 77
2018-07-08 09:00:00 17.3 3 Nordeste 6 Nordeste 0 -- -- 100
2018-07-08 08:00:00 12.7 3 Sudoeste 9 Oeste 0 -- -- 100
2018-07-08 07:00:00 12.7 3 Oeste 7 Oeste 0 -- -- 100
2018-07-08 06:00:00 11.6 2 Noroeste 5 Noroeste 0 -- -- 100
2018-07-08 05:00:00 11.1 2 Noroeste 7 Oeste 0 -- -- 100
2018-07-08 04:00:00 11.4 4 Noroeste 9 Oeste 0 -- -- 100
2018-07-08 03:00:00 13.4 3 Oeste 6 Oeste 0 -- -- 100
2018-07-08 02:00:00 11.9 3 Oeste 6 Sudoeste 0 -- -- 100
2018-07-08 01:00:00 12.2 3 Oeste 6 Oeste 0 -- -- 100
2018-07-08 00:00:00 12.4 4 Oeste 9 Oeste 0 -- -- 100
2018-07-07 23:00:00 12.7 7 Oeste 9 Oeste 0 -- -- 100
2018-07-07 22:00:00 13.7 5 Noroeste 8 Noroeste 0 -- -- 99
2018-07-07 21:00:00 15.2 5 Noroeste 16 Norte 0 -- -- 97
2018-07-07 20:00:00 16.9 11 Norte 16 Norte 0 -- -- 92
2018-07-07 19:00:00 19.7 10 Norte 16 Norte 0 -- -- 83
2018-07-07 18:00:00 21.6 10 Nordeste 17 Nordeste 0 -- -- 74
2018-07-07 17:00:00 22.2 7 Norte 15 Norte 0 -- -- 73
2018-07-07 16:00:00 22.2 7 Nordeste 17 Nordeste 0 -- -- 73
2018-07-07 15:00:00 22.2 8 Nordeste 16 Nordeste 0 -- -- 72
2018-07-07 14:00:00 23.4 8 Nordeste 15 Nordeste 0 -- -- 70
2018-07-07 13:00:00 22.8 6 Nordeste 15 Nordeste 0 -- -- 68
2018-07-07 12:00:00 23 6 Nordeste 16 Este 0 -- -- 59
2018-07-07 11:00:00 21.1 7 Nordeste 14 Nordeste 0 -- -- 75
2018-07-07 10:00:00 19.7 5 Nordeste 12 Nordeste 0 -- -- 82
2018-07-07 09:00:00 15.8 5 Norte 15 Nordeste 0 -- -- 100
2018-07-07 08:00:00 14.1 6 Norte 15 Norte 0 -- -- 100
2018-07-07 07:00:00 14.1 5 Norte 12 Nordeste 0 -- -- 100
2018-07-07 06:00:00 14.4 7 Oeste 12 Sudoeste 0 -- -- 100
2018-07-07 05:00:00 14.5 4 Oeste 10 Sudoeste 0 -- -- 100
2018-07-07 04:00:00 14.6 2 Noroeste 11 Norte 0 -- -- 100
2018-07-07 03:00:00 14.7 7 Norte 14 Norte 0 -- -- 100
2018-07-07 02:00:00 14.7 7 Norte 15 Norte 0 -- -- 100
2018-07-07 01:00:00 15 5 Noroeste 14 Norte 0 -- -- 100
2018-07-07 00:00:00 15.1 7 Noroeste 15 Norte 0 -- -- 100
2018-07-06 23:00:00 15.2 6 Norte 12 Noroeste 0 -- -- 99
2018-07-06 22:00:00 15.3 6 Noroeste 15 Norte 0 -- -- 99
2018-07-06 21:00:00 15.9 5 Noroeste 13 Norte 0 -- -- 97
2018-07-06 20:00:00 16.2 5 Noroeste 16 Noroeste 0 -- -- 93
2018-07-06 19:00:00 18.1 9 Norte 17 Norte 0 -- -- 85
2018-07-06 18:00:00 19.3 11 Norte 21 Norte 0 -- -- 83
2018-07-06 17:00:00 19.3 9 Nordeste 21 Norte 0 -- -- 84
2018-07-06 16:00:00 20.2 13 Norte 21 Norte 0 -- -- 80
2018-07-06 15:00:00 20.8 8 Norte 17 Nordeste 0 -- -- 76
2018-07-06 14:00:00 19.4 6 Norte 16 Norte 0 -- -- 83
2018-07-06 13:00:00 17.5 7 Nordeste 16 Nordeste 0 -- -- 94
2018-07-06 12:00:00 17 6 Norte 15 Norte 0 -- -- 93
2018-07-06 11:00:00 16.2 6 Norte 11 Norte 0 -- -- 100
2018-07-06 10:00:00 15.4 7 Norte 14 Norte 0 -- -- 100
2018-07-06 09:00:00 14.9 3 Noroeste 13 Noroeste 0 -- -- 100
2018-07-06 08:00:00 14.6 5 Noroeste 12 Norte 0 -- -- 100
2018-07-06 07:00:00 14.5 6 Norte 14 Norte 0 -- -- 100
2018-07-06 06:00:00 14.6 7 Noroeste 14 Noroeste 0 -- -- 100
2018-07-06 05:00:00 14.7 7 Noroeste 14 Oeste 0 -- -- 100
2018-07-06 04:00:00 14.7 7 Noroeste 16 Noroeste 0 -- -- 100
2018-07-06 03:00:00 14.7 5 Noroeste 12 Noroeste 0 -- -- 100
2018-07-06 02:00:00 14.8 6 Norte 17 Norte 0 -- -- 100
2018-07-06 01:00:00 13.9 6 Norte 14 Norte 0 -- -- 100
2018-07-06 00:00:00 14.4 8 Norte 14 Norte 0 -- -- 100
2018-07-05 23:00:00 13.7 3 Norte 10 Noroeste 0 -- -- 99
2018-07-05 22:00:00 15.3 3 Nordeste 13 Norte 0 -- -- 98
2018-07-05 21:00:00 14.7 5 Noroeste 9 Norte 0 -- -- 95
2018-07-05 20:00:00 16.9 4 Nordeste 12 Norte 0 -- -- 90
2018-07-05 19:00:00 18.8 8 Norte 14 Nordeste 0 -- -- 84
2018-07-05 18:00:00 21 7 Nordeste 14 Norte 0 -- -- 76
2018-07-05 17:00:00 21.6 6 Nordeste 16 Nordeste 0 -- -- 73
2018-07-05 16:00:00 21.1 8 Nordeste 18 Nordeste 0 -- -- 74
2018-07-05 15:00:00 22.1 9 Nordeste 19 Norte 0 -- -- 71
2018-07-05 14:00:00 21.8 8 Nordeste 18 Este 0 -- -- 70
2018-07-05 13:00:00 21.2 6 Nordeste 15 Nordeste 0 -- -- 69
2018-07-05 12:00:00 20.1 8 Nordeste 13 Norte 0 -- -- 77
2018-07-05 11:00:00 19 6 Nordeste 12 Norte 0 -- -- 82
2018-07-05 10:00:00 16.6 5 Noroeste 14 Noroeste 0 -- -- 92
2018-07-05 09:00:00 15.4 3 Norte 13 Norte 0 -- -- 97
2018-07-05 08:00:00 14.6 4 Noroeste 14 Noroeste 0 -- -- 100
2018-07-05 07:00:00 14.4 5 Noroeste 11 Noroeste 0 -- -- 100
2018-07-05 06:00:00 13.3 5 Noroeste 10 Norte 0 -- -- 100
2018-07-05 05:00:00 14.6 4 Nordeste 9 Norte 0 -- -- 100
2018-07-05 04:00:00 14.3 5 Noroeste 13 Oeste 0 -- -- 100
2018-07-05 03:00:00 13.9 0 Calma 11 Sudeste 0 -- -- 100
2018-07-05 02:00:00 13.8 3 Oeste 8 Sudoeste 0 -- -- 100
2018-07-05 01:00:00 13.2 0 Calma 8 Sudoeste 0 -- -- 99
2018-07-05 00:00:00 12.9 2 Noroeste 10 Este 0 -- -- 94
2018-07-04 23:00:00 12.8 3 Oeste 13 Sur 0 -- -- 95
2018-07-04 22:00:00 12.6 3 Sudoeste 9 Sudeste 0 -- -- 97
2018-07-04 21:00:00 14.2 4 Sur 6 Norte 0 -- -- 93
2018-07-04 20:00:00 17.2 2 Nordeste 14 Norte 0 -- -- 82
2018-07-04 19:00:00 18.9 5 Nordeste 14 Este 0 -- -- 80
2018-07-04 18:00:00 19.9 7 Este 15 Este 0 -- -- 72
2018-07-04 17:00:00 20.4 8 Norte 20 Nordeste 0 -- -- 77
2018-07-04 16:00:00 20.6 8 Nordeste 19 Nordeste 0 -- -- 74
2018-07-04 15:00:00 20.8 9 Nordeste 21 Este 0 -- -- 76
2018-07-04 14:00:00 21.5 11 Nordeste 19 Este 0 -- -- 70
2018-07-04 13:00:00 21 8 Nordeste 20 Nordeste 0 -- -- 73
2018-07-04 12:00:00 19.5 9 Norte 15 Nordeste 0 -- -- 83
2018-07-04 11:00:00 19.8 9 Nordeste 15 Nordeste 0 -- -- 78
2018-07-04 10:00:00 15.8 7 Este 11 Este 0 -- -- 99
2018-07-04 09:00:00 15.3 6 Este 12 Este 0 -- -- 100
2018-07-04 08:00:00 14.8 7 Nordeste 14 Norte 0 -- -- 100
2018-07-04 07:00:00 14.7 3 Norte 15 Nordeste 0 -- -- 100
2018-07-04 06:00:00 15 4 Norte 14 Norte 0 -- -- 100
2018-07-04 05:00:00 14.8 3 Oeste 14 Norte 0 -- -- 100
2018-07-04 04:00:00 15 5 Norte 14 Norte 0 -- -- 100
2018-07-04 03:00:00 15.1 4 Nordeste 11 Norte 0 -- -- 100
2018-07-04 02:00:00 15.2 5 Norte 10 Noroeste 0 -- -- 100
2018-07-04 01:00:00 14.6 4 Oeste 15 Norte 0 -- -- 100
2018-07-04 00:00:00 14.6 4 Noroeste 9 Norte 0 -- -- 100
2018-07-03 23:00:00 14.1 3 Noroeste 9 Noroeste 0 -- -- 100
2018-07-03 22:00:00 13.4 5 Noroeste 10 Norte 0 -- -- 97
2018-07-03 21:00:00 14 5 Oeste 14 Noroeste 0 -- -- 91
2018-07-03 20:00:00 17 6 Norte 12 Noroeste 0 -- -- 87
2018-07-03 19:00:00 19.1 5 Nordeste 14 Nordeste 0 -- -- 77
2018-07-03 18:00:00 20.6 4 Norte 18 Nordeste 0 -- -- 72
2018-07-03 17:00:00 19.7 7 Nordeste 17 Nordeste 0 -- -- 78
2018-07-03 16:00:00 19.7 6 Nordeste 19 Nordeste 0 -- -- 77
2018-07-03 15:00:00 20.6 8 Nordeste 22 Norte 0 -- -- 73
2018-07-03 14:00:00 19.7 10 Norte 20 Nordeste 0 -- -- 75
2018-07-03 13:00:00 19.7 14 Norte 21 Norte 0 -- -- 78
2018-07-03 12:00:00 19.1 8 Nordeste 17 Norte 0 -- -- 81
2018-07-03 11:00:00 17.2 9 Norte 15 Norte 0 -- -- 90
2018-07-03 10:00:00 16.5 6 Norte 15 Norte 0 -- -- 92
2018-07-03 09:00:00 15.9 6 Norte 12 Norte 0 -- -- 95
2018-07-03 08:00:00 14.7 4 Noroeste 17 Norte 0 -- -- 100
2018-07-03 07:00:00 14.3 7 Noroeste 17 Noroeste 0 -- -- 100
2018-07-03 06:00:00 14.8 6 Norte 18 Norte 0 -- -- 100
2018-07-03 05:00:00 14.6 5 Noroeste 17 Noroeste 0 -- -- 99
2018-07-03 04:00:00 14.6 5 Noroeste 14 Oeste 0 -- -- 100
2018-07-03 03:00:00 13.9 6 Oeste 13 Norte 0 -- -- 100
2018-07-03 02:00:00 15.1 5 Norte 11 Norte 0 -- -- 100
2018-07-03 01:00:00 14.7 6 Noroeste 11 Noroeste 0 -- -- 100
2018-07-03 00:00:00 14.5 3 Noroeste 10 Norte 0 -- -- 99
2018-07-02 23:00:00 14.6 3 Noroeste 13 Noroeste 0 -- -- 99
2018-07-02 22:00:00 14.6 4 Oeste 8 Sudoeste 0 -- -- 98
2018-07-02 21:00:00 14.2 4 Oeste 8 Oeste 0 -- -- 95
2018-07-02 20:00:00 16.3 4 Norte 14 Norte 0 -- -- 89
2018-07-02 19:00:00 17.5 7 Norte 14 Norte 0 -- -- 87
2018-07-02 18:00:00 18.2 8 Norte 17 Norte 0 -- -- 86
2018-07-02 17:00:00 18.2 9 Norte 18 Nordeste 0 -- -- 85
2018-07-02 16:00:00 18.4 8 Nordeste 19 Nordeste 0 -- -- 83
2018-07-02 15:00:00 20.8 10 Norte 20 Norte 0 -- -- 75
2018-07-02 14:00:00 20.8 8 Nordeste 17 Nordeste 0 -- -- 78
2018-07-02 13:00:00 18.3 10 Norte 17 Norte 0 -- -- 89
2018-07-02 12:00:00 18.8 8 Nordeste 16 Nordeste 0 -- -- 83
2018-07-02 11:00:00 19.1 9 Nordeste 14 Nordeste 0 -- -- 83
2018-07-02 10:00:00 15.9 5 Norte 11 Noroeste 0 -- -- 99
2018-07-02 09:00:00 15 5 Norte 9 Noroeste 0 -- -- 100
2018-07-02 08:00:00 14.3 5 Noroeste 8 Noroeste 0 -- -- 100
2018-07-02 07:00:00 14.1 2 Noroeste 7 Norte 0 -- -- 100
2018-07-02 06:00:00 14.6 5 Norte 9 Norte 0 -- -- 100
2018-07-02 05:00:00 14.3 2 Norte 9 Oeste 0 -- -- 100
2018-07-02 04:00:00 13.3 3 Oeste 10 Sudoeste 0 -- -- 100
2018-07-02 03:00:00 11.5 5 Oeste 9 Oeste 0 -- -- 100
2018-07-02 02:00:00 11.6 5 Oeste 9 Oeste 0 -- -- 100
2018-07-02 01:00:00 11.7 4 Oeste 8 Sudoeste 0 -- -- 100
2018-07-02 00:00:00 11.7 3 Sudoeste 11 Oeste 0 -- -- 100
2018-07-01 23:00:00 13.2 4 Oeste 9 Oeste 0 -- -- 98
2018-07-01 22:00:00 13.8 5 Oeste 7 Oeste 0 -- -- 99
2018-07-01 21:00:00 15.3 4 Norte 12 Nordeste 0 -- -- 96
2018-07-01 20:00:00 16.7 4 Norte 11 Norte 0 -- -- 90
2018-07-01 19:00:00 17.1 8 Norte 15 Nordeste 0 -- -- 84
2018-07-01 18:00:00 18.5 9 Norte 19 Norte 0 -- -- 78
2018-07-01 17:00:00 19.9 12 Norte 25 Norte 0 -- -- 75
2018-07-01 16:00:00 21.7 11 Norte 22 Nordeste 0 -- -- 69
2018-07-01 15:00:00 21.1 10 Nordeste 22 Nordeste 0 -- -- 71
2018-07-01 14:00:00 20.8 12 Nordeste 25 Este 0 -- -- 72
2018-07-01 13:00:00 21.5 9 Norte 21 Norte 0 -- -- 67
2018-07-01 12:00:00 19.6 9 Norte 21 Norte 0 -- -- 75
2018-07-01 11:00:00 19.2 7 Noroeste 16 Norte 0 -- -- 76
2018-07-01 10:00:00 17.6 6 Noroeste 14 Norte 0 -- -- 86
2018-07-01 09:00:00 17.6 6 Noroeste 14 Noroeste 0 -- -- 86
2018-07-01 08:00:00 15.7 0 Calma 12 Norte 0 -- -- 100
2018-07-01 07:00:00 14.2 7 Noroeste 16 Oeste 0 -- -- 99
2018-07-01 06:00:00 11.8 8 Oeste 11 Oeste 0 -- -- 100
2018-07-01 05:00:00 12.7 8 Oeste 11 Oeste 0 -- -- 100
2018-07-01 04:00:00 12.3 6 Oeste 10 Oeste 0 -- -- 100
2018-07-01 03:00:00 12.9 6 Oeste 12 Norte 0 -- -- 100
2018-07-01 02:00:00 14.8 8 Norte 15 Norte 0 -- -- 100
2018-07-01 01:00:00 15.2 6 Noroeste 22 Oeste 0.2 -- -- 96
2018-07-01 00:00:00 14.9 6 Noroeste 16 Oeste 0 -- -- 93
2018-06-30 23:00:00 14.3 7 Oeste 15 Oeste 0 -- -- 96
2018-06-30 22:00:00 14.8 4 Noroeste 13 Noroeste 0 -- -- 97
2018-06-30 21:00:00 15.4 7 Noroeste 18 Norte 0 -- -- 95
2018-06-30 20:00:00 16.6 6 Norte 21 Norte 0 -- -- 92
2018-06-30 19:00:00 17.8 8 Noroeste 26 Norte 0 -- -- 87
2018-06-30 18:00:00 18.3 13 Norte 26 Norte 0 -- -- 84
2018-06-30 17:00:00 19.4 15 Norte 26 Norte 0 -- -- 77
2018-06-30 16:00:00 19.2 14 Noroeste 29 Norte 0 -- -- 79
2018-06-30 15:00:00 20.5 13 Norte 27 Norte 0 -- -- 72
2018-06-30 14:00:00 20.7 15 Norte 29 Norte 0 -- -- 75
2018-06-30 13:00:00 20.5 13 Norte 28 Norte 0 -- -- 69
2018-06-30 12:00:00 20.3 14 Norte 25 Norte 0 -- -- 72
2018-06-30 11:00:00 18.7 10 Noroeste 26 Noroeste 0 -- -- 73
2018-06-30 10:00:00 18.6 12 Noroeste 19 Oeste 0 -- -- 80
2018-06-30 09:00:00 14.9 5 Oeste 22 Oeste 0 -- -- 97
2018-06-30 08:00:00 14.2 12 Noroeste 20 Norte 1.2 -- -- 100
2018-06-30 07:00:00 14.5 6 Oeste 21 Sudoeste 0.2 -- -- 99
2018-06-30 06:00:00 14.5 4 Sudoeste 27 Oeste 0 -- -- 99
2018-06-30 05:00:00 14.6 13 Oeste 22 Sudoeste 0.2 -- -- 100
2018-06-30 04:00:00 14.7 9 Noroeste 25 Norte 0 -- -- 100
2018-06-30 03:00:00 14.7 9 Noroeste 21 Noroeste 0.6 -- -- 100
2018-06-30 02:00:00 15.2 8 Norte 28 Noroeste 0.2 -- -- 100
2018-06-30 01:00:00 15.1 13 Noroeste 29 Noroeste 0 -- -- 100
2018-06-30 00:00:00 15.3 16 Noroeste 32 Norte 0 -- -- 100
2018-06-29 23:00:00 15.2 15 Noroeste 28 Noroeste 0.2 -- -- 100
2018-06-29 22:00:00 15.6 9 Noroeste 23 Noroeste 0.6 -- -- 100
2018-06-29 21:00:00 16.1 10 Noroeste 24 Noroeste 0 -- -- 99
2018-06-29 20:00:00 16.9 8 Norte 23 Noroeste 0 -- -- 97
2018-06-29 19:00:00 17.9 9 Norte 16 Noroeste 0 -- -- 95
2018-06-29 18:00:00 19 9 Norte 18 Noroeste 0 -- -- 94
2018-06-29 17:00:00 21 8 Norte 17 Norte 0 -- -- 79
2018-06-29 16:00:00 23 10 Norte 20 Norte 0 -- -- 71
2018-06-29 15:00:00 21.7 11 Norte 21 Norte 0 -- -- 74
2018-06-29 14:00:00 22.7 8 Norte 22 Norte 0 -- -- 71
2018-06-29 13:00:00 24.1 11 Norte 23 Norte 0 -- -- 65
2018-06-29 12:00:00 23.5 9 Norte 26 Norte 0 -- -- 70
2018-06-29 11:00:00 22.5 12 Noroeste 26 Noroeste 0 -- -- 70
2018-06-29 10:00:00 20.9 10 Norte 25 Noroeste 0 -- -- 70
2018-06-29 09:00:00 20.7 10 Noroeste 27 Noroeste 0 -- -- 74
2018-06-29 08:00:00 18.4 7 Noroeste 27 Noroeste 0 -- -- 86
2018-06-29 07:00:00 16.5 7 Sudoeste 28 Noroeste 0 -- -- 95
2018-06-29 06:00:00 16.4 10 Noroeste 28 Noroeste 0 -- -- 95
2018-06-29 05:00:00 16.4 8 Norte 29 Noroeste 0 -- -- 95
2018-06-29 04:00:00 16.2 8 Oeste 29 Oeste 0 -- -- 94
2018-06-29 03:00:00 16.1 13 Noroeste 26 Noroeste 0 -- -- 92
2018-06-29 02:00:00 16.1 9 Oeste 31 Oeste 0 -- -- 93
2018-06-29 01:00:00 16.1 9 Sudoeste 27 Sudoeste 0 -- -- 95
2018-06-29 00:00:00 16.4 14 Noroeste 28 Noroeste 0 -- -- 92
2018-06-28 23:00:00 16.3 8 Sudeste 23 Oeste 0 -- -- 89
2018-06-28 22:00:00 16 8 Oeste 28 Noroeste 0 -- -- 94
2018-06-28 21:00:00 16.2 13 Noroeste 25 Noroeste 0 -- -- 94
2018-06-28 20:00:00 17.2 11 Noroeste 27 Noroeste 0 -- -- 85
2018-06-28 19:00:00 20.2 16 Noroeste 33 Noroeste 0 -- -- 75
2018-06-28 18:00:00 22.1 13 Noroeste 25 Noroeste 0 -- -- 69
2018-06-28 17:00:00 21.8 14 Noroeste 29 Noroeste 0 -- -- 66
2018-06-28 16:00:00 22.2 14 Noroeste 28 Norte 0 -- -- 69
2018-06-28 15:00:00 22.2 13 Norte 26 Noroeste 0 -- -- 66
2018-06-28 14:00:00 22.3 11 Norte 26 Norte 0 -- -- 68
2018-06-28 13:00:00 21.6 12 Noroeste 27 Noroeste 0 -- -- 71
2018-06-28 12:00:00 21.2 11 Norte 24 Norte 0 -- -- 77
2018-06-28 11:00:00 19 9 Norte 19 Norte 0 -- -- 89
2018-06-28 10:00:00 16.9 6 Oeste 19 Noroeste 0 -- -- 94
2018-06-28 09:00:00 16.1 9 Noroeste 17 Oeste 0 -- -- 96
2018-06-28 08:00:00 15.2 10 Noroeste 19 Oeste 0 -- -- 100
2018-06-28 07:00:00 14.8 10 Noroeste 19 Noroeste 0 -- -- 100
2018-06-28 06:00:00 14.8 7 Noroeste 18 Noroeste 0 -- -- 100
2018-06-28 05:00:00 13.1 4 Noroeste 14 Noroeste 0 -- -- 95
2018-06-28 04:00:00 13.9 9 Noroeste 16 Norte 0 -- -- 85
2018-06-28 03:00:00 13.1 4 Noroeste 12 Noroeste 0 -- -- 90
2018-06-28 02:00:00 12.6 5 Noroeste 9 Noroeste 0 -- -- 91
2018-06-28 01:00:00 11.4 6 Noroeste 10 Noroeste 0 -- -- 100
2018-06-28 00:00:00 13 5 Noroeste 11 Noroeste 0 -- -- 100
2018-06-27 23:00:00 12.7 3 Noroeste 8 Noroeste 0 -- -- 99
2018-06-27 22:00:00 11.7 3 Sur 10 Oeste 0 -- -- 96
2018-06-27 21:00:00 13.8 0 Calma 11 Noroeste 0 -- -- 94
2018-06-27 20:00:00 16.8 6 Noroeste 17 Norte 0 -- -- 84
2018-06-27 19:00:00 20.9 8 Nordeste 13 Nordeste 0 -- -- 74
2018-06-27 18:00:00 19.7 6 Nordeste 14 Nordeste 0 -- -- 77
2018-06-27 17:00:00 21.3 9 Nordeste 15 Nordeste 0 -- -- 72
2018-06-27 16:00:00 22.3 9 Nordeste 18 Norte 0 -- -- 68
2018-06-27 15:00:00 21.4 10 Nordeste 17 Nordeste 0 -- -- 73
2018-06-27 14:00:00 22.3 10 Nordeste 18 Nordeste 0 -- -- 68
2018-06-27 13:00:00 21.7 9 Nordeste 17 Nordeste 0 -- -- 68
2018-06-27 12:00:00 21.4 6 Este 14 Nordeste 0 -- -- 71
2018-06-27 11:00:00 20.6 6 Nordeste 13 Nordeste 0 -- -- 73
2018-06-27 10:00:00 18.3 5 Nordeste 9 Nordeste 0 -- -- 84
2018-06-27 09:00:00 14.8 0 Calma 9 Nordeste 0 -- -- 100
2018-06-27 08:00:00 13.2 4 Oeste 9 Oeste 0 -- -- 100
2018-06-27 07:00:00 10.9 6 Oeste 9 Oeste 0 -- -- 100
2018-06-27 06:00:00 10.8 5 Oeste 10 Oeste 0 -- -- 100
2018-06-27 05:00:00 11.8 5 Oeste 10 Noroeste 0 -- -- 100
2018-06-27 04:00:00 10.5 6 Noroeste 8 Oeste 0 -- -- 100
2018-06-27 03:00:00 12.5 7 Noroeste 11 Noroeste 0 -- -- 100
2018-06-27 02:00:00 12.5 7 Noroeste 10 Noroeste 0 -- -- 100
2018-06-27 01:00:00 11 5 Noroeste 8 Noroeste 0 -- -- 100
2018-06-27 00:00:00 10.5 3 Oeste 7 Noroeste 0 -- -- 96
2018-06-26 23:00:00 10.9 2 Oeste 7 Oeste 0 -- -- 100
2018-06-26 22:00:00 12.7 3 Oeste 7 Oeste 0 -- -- 98
2018-06-26 21:00:00 14.2 3 Oeste 6 Oeste 0 -- -- 99
2018-06-26 20:00:00 16.1 4 Oeste 11 Nordeste 0 -- -- 88
2018-06-26 19:00:00 21.4 6 Nordeste 14 Este 0 -- -- 72
2018-06-26 18:00:00 21.7 7 Nordeste 17 Este 0 -- -- 74
2018-06-26 17:00:00 21.5 10 Nordeste 19 Nordeste 0 -- -- 77
2018-06-26 16:00:00 22.2 9 Nordeste 21 Nordeste 0 -- -- 71
2018-06-26 15:00:00 22.3 10 Nordeste 22 Este 0 -- -- 72
2018-06-26 14:00:00 22 11 Nordeste 20 Norte 0 -- -- 73
2018-06-26 13:00:00 21 9 Nordeste 20 Este 0 -- -- 74
2018-06-26 12:00:00 19.4 5 Nordeste 16 Sudeste 0 -- -- 79
2018-06-26 11:00:00 18.6 6 Este 13 Este 0 -- -- 85
2018-06-26 10:00:00 16.5 5 Sudeste 10 Este 0 -- -- 92
2018-06-26 09:00:00 16.1 4 Sudeste 8 Sudeste 0 -- -- 92
2018-06-26 08:00:00 15.6 0 Calma 7 Noroeste 0 -- -- 100
2018-06-26 07:00:00 11.4 4 Oeste 9 Sudoeste 0 -- -- 100
2018-06-26 06:00:00 11.8 2 Sur 8 Sudoeste 0 -- -- 100
2018-06-26 05:00:00 11.7 4 Sur 8 Sudeste 0 -- -- 99
2018-06-26 04:00:00 11.5 4 Sudoeste 9 Sudoeste 0 -- -- 94
2018-06-26 03:00:00 11.1 4 Sudoeste 6 Sudoeste 0 -- -- 96
2018-06-26 02:00:00 11.2 2 Sur 6 Oeste 0 -- -- 95
2018-06-26 01:00:00 11.4 4 Sudoeste 9 Sudoeste 0 -- -- 93
2018-06-26 00:00:00 11.3 4 Sudoeste 6 Oeste 0 -- -- 97
2018-06-25 23:00:00 11.6 0 Calma 9 Oeste 0 -- -- 99
2018-06-25 22:00:00 13.3 5 Sudoeste 10 Sudoeste 0 -- -- 97
2018-06-25 21:00:00 15.3 2 Noroeste 8 Nordeste 0 -- -- 96
2018-06-25 20:00:00 17.2 5 Norte 12 Nordeste 0 -- -- 92
2018-06-25 19:00:00 20.6 7 Nordeste 15 Nordeste 0 -- -- 75
2018-06-25 18:00:00 21.6 9 Nordeste 18 Nordeste 0 -- -- 69
2018-06-25 17:00:00 22.3 11 Nordeste 21 Este 0 -- -- 69
2018-06-25 16:00:00 22.2 11 Nordeste 21 Nordeste 0 -- -- 68
2018-06-25 15:00:00 22.9 10 Nordeste 24 Nordeste 0 -- -- 64
2018-06-25 14:00:00 22.3 10 Nordeste 22 Nordeste 0 -- -- 68
2018-06-25 13:00:00 22.7 10 Nordeste 20 Nordeste 0 -- -- 67
2018-06-25 12:00:00 22.2 10 Este 19 Nordeste 0 -- -- 75
2018-06-25 11:00:00 21.6 9 Este 16 Nordeste 0 -- -- 75
2018-06-25 10:00:00 21.1 5 Este 11 Este 0 -- -- 73
2018-06-25 09:00:00 15.1 6 Sudeste 10 Este 0 -- -- 100
2018-06-25 08:00:00 13.4 4 Sur 8 Sudeste 0 -- -- 100
2018-06-25 07:00:00 11 2 Sudoeste 5 Sudoeste 0 -- -- 100
2018-06-25 06:00:00 11.1 5 Oeste 10 Oeste 0 -- -- 100
2018-06-25 05:00:00 10 5 Oeste 8 Oeste 0 -- -- 100
2018-06-25 04:00:00 10.5 2 Sudoeste 7 Noroeste 0 -- -- 100
2018-06-25 03:00:00 10.2 0 Calma 9 Noroeste 0 -- -- 97
2018-06-25 02:00:00 10.8 7 Oeste 10 Oeste 0 -- -- 93
2018-06-25 01:00:00 11.5 6 Oeste 10 Oeste 0 -- -- 89
2018-06-25 00:00:00 11.6 7 Oeste 11 Oeste 0 -- -- 91
2018-06-24 23:00:00 10.6 6 Oeste 8 Sudoeste 0 -- -- 100
2018-06-24 22:00:00 11.1 4 Oeste 7 Sudoeste 0 -- -- 99
2018-06-24 21:00:00 13.4 0 Calma 9 Nordeste 0 -- -- 96
2018-06-24 20:00:00 16.5 7 Norte 14 Norte 0 -- -- 89
2018-06-24 19:00:00 20.7 9 Norte 17 Norte 0 -- -- 71
2018-06-24 18:00:00 20.8 11 Norte 20 Norte 0 -- -- 71
2018-06-24 17:00:00 21.3 10 Norte 21 Nordeste 0 -- -- 70
2018-06-24 16:00:00 21.2 12 Norte 20 Norte 0 -- -- 72
2018-06-24 15:00:00 21.6 11 Norte 18 Nordeste 0 -- -- 72
2018-06-24 14:00:00 21 10 Nordeste 20 Este 0 -- -- 73
2018-06-24 13:00:00 21.6 11 Norte 27 Nordeste 0 -- -- 68
2018-06-24 12:00:00 20.8 10 Norte 19 Norte 0 -- -- 71
2018-06-24 11:00:00 20.8 10 Norte 18 Norte 0 -- -- 76
2018-06-24 10:00:00 19.3 11 Norte 19 Norte 0 -- -- 77
2018-06-24 09:00:00 17.7 9 Norte 21 Noroeste 0 -- -- 85
2018-06-24 08:00:00 15.3 9 Noroeste 24 Noroeste 0 -- -- 91
2018-06-24 07:00:00 13.6 13 Noroeste 27 Noroeste 0 -- -- 96
2018-06-24 06:00:00 13.6 17 Noroeste 26 Noroeste 0 -- -- 100
2018-06-24 05:00:00 13.7 16 Noroeste 29 Noroeste 0 -- -- 100
2018-06-24 04:00:00 13.5 18 Noroeste 32 Oeste 0 -- -- 100
2018-06-24 03:00:00 13.8 10 Oeste 26 Oeste 0 -- -- 100
2018-06-24 02:00:00 14 13 Noroeste 26 Noroeste 0 -- -- 99
2018-06-24 01:00:00 14.3 15 Noroeste 27 Noroeste 0 -- -- 99
2018-06-24 00:00:00 14.7 5 Noroeste 21 Oeste 0 -- -- 100
2018-06-23 23:00:00 14.6 8 Oeste 27 Noroeste 0 -- -- 100
2018-06-23 22:00:00 14.5 5 Oeste 21 Noroeste 0 -- -- 97
2018-06-23 21:00:00 15.5 10 Oeste 23 Oeste 0 -- -- 95
2018-06-23 20:00:00 16.8 15 Noroeste 28 Noroeste 0 -- -- 87
2018-06-23 19:00:00 19.1 19 Noroeste 32 Noroeste 0 -- -- 78
2018-06-23 18:00:00 20.4 17 Noroeste 28 Noroeste 0 -- -- 76
2018-06-23 17:00:00 20.9 15 Noroeste 28 Noroeste 0 -- -- 72
2018-06-23 16:00:00 21.2 15 Noroeste 27 Norte 0 -- -- 71
2018-06-23 15:00:00 20.9 14 Noroeste 27 Norte 0 -- -- 74
2018-06-23 14:00:00 20.6 14 Noroeste 23 Noroeste 0 -- -- 77
2018-06-23 13:00:00 20.3 11 Norte 27 Noroeste 0 -- -- 80
2018-06-23 12:00:00 18.3 10 Noroeste 27 Noroeste 0 -- -- 87
2018-06-23 11:00:00 16.1 14 Noroeste 31 Noroeste 0 -- -- 93
2018-06-23 10:00:00 14.9 12 Noroeste 26 Oeste 0 -- -- 98
2018-06-23 09:00:00 14.2 12 Noroeste 23 Noroeste 0 -- -- 98
2018-06-23 08:00:00 14 12 Oeste 27 Oeste 0 -- -- 99
2018-06-23 07:00:00 13.6 12 Oeste 30 Oeste 0 -- -- 99
2018-06-23 06:00:00 13.6 11 Oeste 22 Oeste 0 -- -- 100
2018-06-23 05:00:00 13.5 3 Oeste 21 Norte 0 -- -- 100
2018-06-23 04:00:00 14 5 Oeste 15 Sudoeste 0 -- -- 100
2018-06-23 03:00:00 13.6 5 Oeste 16 Noroeste 0 -- -- 100
2018-06-23 02:00:00 13.6 7 Oeste 17 Sudoeste 0 -- -- 100
2018-06-23 01:00:00 12.8 9 Noroeste 18 Oeste 0 -- -- 99
2018-06-23 00:00:00 12.8 10 Noroeste 24 Oeste 0 -- -- 97
2018-06-22 23:00:00 13.2 12 Noroeste 22 Oeste 0 -- -- 97
2018-06-22 22:00:00 13.2 9 Oeste 21 Oeste 0 -- -- 96
2018-06-22 21:00:00 13.6 7 Noroeste 23 Noroeste 0 -- -- 96
2018-06-22 20:00:00 14.3 9 Noroeste 24 Noroeste 0 -- -- 93
2018-06-22 19:00:00 15.7 12 Noroeste 19 Norte 0 -- -- 90
2018-06-22 18:00:00 15.8 12 Noroeste 26 Noroeste 0 -- -- 95
2018-06-22 17:00:00 15.8 12 Norte 25 Noroeste 0 -- -- 97
2018-06-22 16:00:00 17 10 Noroeste 26 Noroeste 0 -- -- 89
2018-06-22 15:00:00 16.7 13 Noroeste 26 Noroeste 0 -- -- 91
2018-06-22 14:00:00 16.7 12 Norte 21 Norte 0 -- -- 92
2018-06-22 13:00:00 16.9 12 Noroeste 25 Noroeste 0 -- -- 89
2018-06-22 12:00:00 15.7 10 Noroeste 21 Norte 0 -- -- 96
2018-06-22 11:00:00 15.3 8 Norte 19 Noroeste 0 -- -- 100
2018-06-22 10:00:00 14.4 8 Noroeste 16 Norte 0 -- -- 100
2018-06-22 09:00:00 13.9 8 Noroeste 19 Oeste 0 -- -- 100
2018-06-22 08:00:00 13.4 10 Noroeste 22 Noroeste 0 -- -- 100
2018-06-22 07:00:00 13.9 10 Noroeste 25 Noroeste 0 -- -- 100
2018-06-22 06:00:00 13.8 12 Noroeste 22 Noroeste 0 -- -- 100
2018-06-22 05:00:00 14 11 Noroeste 21 Noroeste 0 -- -- 100
2018-06-22 04:00:00 14 9 Noroeste 23 Norte 0 -- -- 100
2018-06-22 03:00:00 14 9 Noroeste 24 Oeste 0 -- -- 100
2018-06-22 02:00:00 14 13 Oeste 30 Oeste 0 -- -- 100
2018-06-22 01:00:00 13.9 10 Noroeste 26 Oeste 0 -- -- 100
2018-06-22 00:00:00 14.2 9 Oeste 25 Sudoeste 0 -- -- 100
2018-06-21 23:00:00 13.5 12 Oeste 27 Noroeste 0 -- -- 100
2018-06-21 22:00:00 13.2 7 Oeste 24 Oeste 0 -- -- 99
2018-06-21 21:00:00 13.9 12 Noroeste 22 Noroeste 0 -- -- 98
2018-06-21 20:00:00 14.6 9 Noroeste 24 Noroeste 0 -- -- 95
2018-06-21 19:00:00 17.4 14 Noroeste 26 Noroeste 0 -- -- 87
2018-06-21 18:00:00 19.5 14 Norte 22 Norte 0 -- -- 81
2018-06-21 17:00:00 19.6 13 Norte 24 Norte 0 -- -- 80
2018-06-21 16:00:00 20 14 Norte 26 Norte 0 -- -- 78
2018-06-21 15:00:00 20.2 12 Norte 26 Norte 0 -- -- 79
2018-06-21 14:00:00 19.8 13 Norte 25 Noroeste 0 -- -- 82
2018-06-21 13:00:00 19.9 12 Norte 26 Noroeste 0 -- -- 82
2018-06-21 12:00:00 16.6 13 Noroeste 22 Noroeste 0 -- -- 98
2018-06-21 11:00:00 15 6 Noroeste 20 Noroeste 0 -- -- 100
2018-06-21 10:00:00 14.5 10 Norte 16 Norte 0 -- -- 100
2018-06-21 09:00:00 14 6 Noroeste 21 Noroeste 0 -- -- 100
2018-06-21 08:00:00 13.8 10 Noroeste 19 Norte 0 -- -- 100
2018-06-21 07:00:00 14 9 Noroeste 17 Noroeste 0 -- -- 100
2018-06-21 06:00:00 12.1 4 Oeste 11 Oeste 0 -- -- 100
2018-06-21 05:00:00 10.6 3 Noroeste 6 Noroeste 0 -- -- 100
2018-06-21 04:00:00 10.8 2 Sudoeste 5 Sudoeste 0 -- -- 100
2018-06-21 03:00:00 11.4 2 Noroeste 6 Norte 0 -- -- 100
2018-06-21 02:00:00 12.7 5 Sudoeste 7 Sur 0 -- -- 100
2018-06-21 01:00:00 13.9 6 Noroeste 20 Noroeste 0 -- -- 99
2018-06-21 00:00:00 14.7 6 Noroeste 16 Noroeste 0 -- -- 99
2018-06-20 23:00:00 14.7 6 Noroeste 15 Norte 0 -- -- 99
2018-06-20 22:00:00 14.7 4 Norte 14 Norte 0 -- -- 98
2018-06-20 21:00:00 14.8 9 Norte 22 Norte 0 -- -- 97
2018-06-20 20:00:00 15.3 9 Norte 26 Noroeste 0 -- -- 95
2018-06-20 19:00:00 18.8 11 Norte 23 Norte 0 -- -- 80
2018-06-20 18:00:00 19.7 13 Norte 23 Norte 0 -- -- 81
2018-06-20 17:00:00 20.1 13 Norte 26 Norte 0 -- -- 80
2018-06-20 16:00:00 21.1 13 Norte 29 Noroeste 0 -- -- 75
2018-06-20 15:00:00 20.8 11 Norte 26 Norte 0 -- -- 75
2018-06-20 14:00:00 19.7 15 Norte 27 Norte 0 -- -- 77
2018-06-20 13:00:00 19.3 13 Norte 27 Norte 0 -- -- 79
2018-06-20 12:00:00 18.2 14 Noroeste 28 Noroeste 0 -- -- 81
2018-06-20 11:00:00 15.5 10 Norte 22 Norte 0 -- -- 95
2018-06-20 10:00:00 14.7 11 Noroeste 22 Noroeste 0 -- -- 97
2018-06-20 09:00:00 14.1 10 Noroeste 21 Oeste 0 -- -- 99
2018-06-20 08:00:00 13.6 8 Noroeste 20 Noroeste 0 -- -- 100
2018-06-20 07:00:00 13.1 4 Noroeste 19 Noroeste 0 -- -- 100
2018-06-20 06:00:00 12.9 9 Noroeste 20 Noroeste 0 -- -- 100
2018-06-20 05:00:00 13.4 5 Oeste 15 Norte 0 -- -- 98
2018-06-20 04:00:00 14 6 Oeste 13 Noroeste 0 -- -- 98
2018-06-20 03:00:00 13.7 2 Noroeste 14 Oeste 0 -- -- 98
2018-06-20 02:00:00 14 5 Norte 21 Noroeste 0 -- -- 96
2018-06-20 01:00:00 14.2 7 Noroeste 21 Noroeste 0 -- -- 97
2018-06-20 00:00:00 14.6 9 Noroeste 24 Sudoeste 0 -- -- 97
2018-06-19 23:00:00 14.6 9 Norte 25 Noroeste 0 -- -- 99
2018-06-19 22:00:00 14.5 9 Noroeste 33 Noroeste 0 -- -- 98
2018-06-19 21:00:00 14.8 14 Noroeste 30 Noroeste 0 -- -- 94
2018-06-19 20:00:00 15.5 12 Noroeste 29 Noroeste 0 -- -- 94
2018-06-19 19:00:00 15.7 16 Noroeste 33 Noroeste 0 -- -- 94
2018-06-19 18:00:00 17.2 20 Noroeste 42 Noroeste 0 -- -- 87
2018-06-19 17:00:00 20.1 16 Noroeste 31 Noroeste 0 -- -- 78
2018-06-19 16:00:00 20.4 20 Noroeste 33 Noroeste 0 -- -- 76
2018-06-19 15:00:00 20.8 18 Noroeste 32 Noroeste 0 -- -- 72
2018-06-19 14:00:00 19.8 19 Noroeste 33 Noroeste 0 -- -- 76
2018-06-19 13:00:00 19.4 19 Noroeste 35 Noroeste 0 -- -- 80
2018-06-19 12:00:00 19.1 19 Noroeste 33 Noroeste 0 -- -- 80
2018-06-19 11:00:00 18.7 13 Noroeste 30 Oeste 0 -- -- 78
2018-06-19 10:00:00 17.2 16 Oeste 30 Oeste 0 -- -- 86
2018-06-19 09:00:00 14.3 13 Oeste 29 Noroeste 0 -- -- 97
2018-06-19 08:00:00 13.7 15 Oeste 35 Oeste 0 -- -- 98
2018-06-19 07:00:00 13.3 15 Noroeste 29 Oeste 0 -- -- 99
2018-06-19 06:00:00 13.5 10 Oeste 24 Oeste 0 -- -- 100
2018-06-19 05:00:00 13.2 12 Oeste 31 Oeste 0 -- -- 100
2018-06-19 04:00:00 13.4 16 Oeste 33 Noroeste 0 -- -- 98
2018-06-19 03:00:00 13.8 11 Oeste 26 Oeste 0 -- -- 97
2018-06-19 02:00:00 13.5 15 Noroeste 27 Noroeste 0 -- -- 96
2018-06-19 01:00:00 13.6 9 Oeste 30 Oeste 0 -- -- 96
2018-06-19 00:00:00 13.6 14 Oeste 33 Oeste 0 -- -- 96
2018-06-18 23:00:00 13.9 16 Noroeste 31 Noroeste 0 -- -- 100
2018-06-18 22:00:00 14 14 Oeste 29 Oeste 0 -- -- 100
2018-06-18 21:00:00 14.4 7 Noroeste 25 Norte 0 -- -- 100
2018-06-18 20:00:00 14.7 12 Noroeste 25 Noroeste 0 -- -- 98
2018-06-18 19:00:00 15.4 14 Noroeste 28 Noroeste 0 -- -- 93
2018-06-18 18:00:00 16.8 15 Noroeste 27 Noroeste 0 -- -- 91
2018-06-18 17:00:00 16.5 9 Norte 25 Noroeste 0 -- -- 94
2018-06-18 16:00:00 17.7 8 Noroeste 25 Noroeste 0 -- -- 87
2018-06-18 15:00:00 17.2 9 Noroeste 22 Noroeste 0 -- -- 90
2018-06-18 14:00:00 17.4 12 Noroeste 22 Noroeste 0 -- -- 90
2018-06-18 13:00:00 16.6 8 Norte 20 Norte 0 -- -- 92
2018-06-18 12:00:00 15.4 9 Norte 21 Norte 0 -- -- 100
2018-06-18 11:00:00 14.2 10 Norte 21 Noroeste 0 -- -- 100
2018-06-18 10:00:00 13.9 3 Noroeste 15 Noroeste 0 -- -- 100
2018-06-18 09:00:00 13.6 7 Noroeste 16 Oeste 0 -- -- 100
2018-06-18 08:00:00 13.2 7 Noroeste 15 Noroeste 0 -- -- 100
2018-06-18 07:00:00 12.8 6 Sudoeste 18 Noroeste 0 -- -- 100
2018-06-18 06:00:00 13.2 6 Norte 17 Oeste 0.2 -- -- 100
2018-06-18 05:00:00 13.3 8 Noroeste 19 Noroeste 0.6 -- -- 100
2018-06-18 04:00:00 13.5 8 Noroeste 17 Norte 0.8 -- -- 100
2018-06-18 03:00:00 13.8 5 Oeste 14 Oeste 0.2 -- -- 100
2018-06-18 02:00:00 13.9 6 Noroeste 14 Noroeste 0.2 -- -- 100
2018-06-18 01:00:00 13.8 6 Noroeste 14 Norte 0.2 -- -- 100
2018-06-18 00:00:00 14.4 8 Norte 19 Noroeste 0.6 -- -- 100
2018-06-17 23:00:00 14.5 9 Norte 16 Norte 2 -- -- 100
2018-06-17 22:00:00 14.7 8 Noroeste 16 Noroeste 1 -- -- 100
2018-06-17 21:00:00 14.9 3 Oeste 16 Oeste 0 -- -- 98
2018-06-17 20:00:00 15.5 8 Noroeste 17 Norte 0 -- -- 94
2018-06-17 19:00:00 16 9 Norte 21 Norte 0 -- -- 92
2018-06-17 18:00:00 17.5 10 Noroeste 24 Oeste 0 -- -- 82
2018-06-17 17:00:00 17.9 9 Norte 20 Nordeste 0 -- -- 82
2018-06-17 16:00:00 18.1 7 Noroeste 17 Noroeste 0 -- -- 80
2018-06-17 15:00:00 18.1 5 Norte 19 Norte 0 -- -- 79
2018-06-17 14:00:00 17.7 8 Norte 21 Nordeste 0 -- -- 79
2018-06-17 13:00:00 16.8 8 Norte 20 Norte 0 -- -- 82
2018-06-17 12:00:00 16.2 11 Norte 23 Noroeste 0 -- -- 83
2018-06-17 11:00:00 15.9 10 Norte 22 Norte 0 -- -- 85
2018-06-17 10:00:00 14.3 12 Norte 23 Norte 0 -- -- 96
2018-06-17 09:00:00 13.9 7 Noroeste 19 Noroeste 0 -- -- 96
2018-06-17 08:00:00 13.2 8 Noroeste 21 Oeste 0 -- -- 98
2018-06-17 07:00:00 12.9 5 Oeste 17 Noroeste 0 -- -- 96
2018-06-17 06:00:00 12.9 8 Noroeste 15 Noroeste 0 -- -- 97
2018-06-17 05:00:00 12.7 8 Oeste 17 Noroeste 0 -- -- 97
2018-06-17 04:00:00 12.7 5 Noroeste 11 Noroeste 0 -- -- 99
2018-06-17 03:00:00 12.6 7 Noroeste 15 Noroeste 0 -- -- 99
2018-06-17 02:00:00 12.4 3 Oeste 14 Oeste 0 -- -- 98
2018-06-17 01:00:00 12.5 7 Oeste 14 Noroeste 0 -- -- 98
2018-06-17 00:00:00 12.9 8 Noroeste 14 Norte 0 -- -- 99